createdAt,value
2023-05-04T00:00:32.176Z,1.00
2023-05-04T00:01:32.285Z,0.94
2023-05-04T00:02:32.397Z,1.21
2023-05-04T00:03:32.555Z,1.00
2023-05-04T00:04:32.462Z,1.02
2023-05-04T00:05:32.693Z,0.98
2023-05-04T00:06:32.614Z,0.93
2023-05-04T00:07:32.770Z,1.05
2023-05-04T00:08:32.966Z,0.78
2023-05-04T00:09:33.153Z,1.01
2023-05-04T00:10:33.258Z,0.79
2023-05-04T00:11:33.689Z,1.25
2023-05-04T00:12:33.536Z,0.92
2023-05-04T00:13:33.598Z,0.83
2023-05-04T00:14:33.745Z,1.05
2023-05-04T00:15:33.931Z,0.84
2023-05-04T00:16:34.045Z,1.06
2023-05-04T00:17:34.228Z,0.93
2023-05-04T00:18:34.443Z,1.05
2023-05-04T00:19:34.526Z,0.93
2023-05-04T00:20:34.623Z,1.14
2023-05-04T00:21:34.764Z,1.16
2023-05-04T00:22:34.869Z,0.95
2023-05-04T00:23:35.105Z,1.23
2023-05-04T00:24:35.200Z,1.03
2023-05-04T00:25:35.314Z,0.89
2023-05-04T00:26:35.524Z,0.78
2023-05-04T00:27:35.568Z,0.84
2023-05-04T00:28:35.700Z,1.00
2023-05-04T00:29:35.852Z,1.27
2023-05-04T00:30:35.956Z,0.90
2023-05-04T00:31:36.134Z,0.98
2023-05-04T00:32:36.312Z,1.09
2023-05-04T00:33:36.388Z,0.86
2023-05-04T00:34:36.516Z,1.00
2023-05-04T00:35:36.609Z,0.81
2023-05-04T00:36:36.765Z,1.06
2023-05-04T00:37:36.930Z,1.20
2023-05-04T00:38:37.043Z,0.91
2023-05-04T00:39:37.188Z,1.03
2023-05-04T00:40:37.271Z,1.11
2023-05-04T00:41:37.368Z,1.17
2023-05-04T00:42:37.486Z,1.04
2023-05-04T00:43:37.603Z,1.02
2023-05-04T00:44:37.746Z,1.19
2023-05-04T00:45:37.870Z,1.18
2023-05-04T00:46:38.066Z,0.76
2023-05-04T00:47:38.150Z,1.33
2023-05-04T00:48:38.298Z,0.74
2023-05-04T00:49:38.366Z,0.90
2023-05-04T00:50:38.507Z,0.87
2023-05-04T00:51:38.675Z,1.04
2023-05-04T00:52:38.740Z,1.03
2023-05-04T00:53:38.883Z,1.19
2023-05-04T00:54:39.044Z,1.06
2023-05-04T00:55:39.807Z,0.86
2023-05-04T00:56:39.235Z,0.77
2023-05-04T00:57:39.228Z,0.85
2023-05-04T00:58:39.284Z,0.89
2023-05-04T00:59:39.230Z,0.66
2023-05-04T01:00:39.272Z,0.78
2023-05-04T01:01:39.290Z,1.08
2023-05-04T01:02:39.408Z,0.77
2023-05-04T01:03:39.460Z,1.07
2023-05-04T01:04:39.433Z,0.98
2023-05-04T01:05:39.431Z,0.80
2023-05-04T01:06:39.441Z,0.99
2023-05-04T01:07:39.465Z,0.86
2023-05-04T01:08:39.504Z,0.83
2023-05-04T01:09:39.519Z,0.91
2023-05-04T01:10:39.506Z,0.79
2023-05-04T01:11:39.582Z,0.91
2023-05-04T01:12:39.644Z,0.93
2023-05-04T01:13:39.620Z,1.07
2023-05-04T01:14:39.651Z,0.97
2023-05-04T01:15:39.650Z,0.89
2023-05-04T01:16:39.684Z,0.75
2023-05-04T01:17:39.695Z,0.92
2023-05-04T01:18:39.691Z,0.99
2023-05-04T01:19:39.734Z,1.10
2023-05-04T01:20:39.767Z,0.78
2023-05-04T01:21:39.761Z,0.93
2023-05-04T01:22:39.858Z,0.70
2023-05-04T01:23:39.738Z,0.80
2023-05-04T01:24:39.739Z,1.09
2023-05-04T01:25:39.846Z,0.79
2023-05-04T01:26:39.924Z,0.75
2023-05-04T01:27:39.899Z,1.04
2023-05-04T01:28:39.965Z,0.67
2023-05-04T01:29:39.953Z,1.04
2023-05-04T01:30:39.980Z,0.62
2023-05-04T01:31:39.963Z,1.25
2023-05-04T01:32:40.080Z,1.07
2023-05-04T01:33:40.039Z,1.14
2023-05-04T01:34:40.046Z,0.82
2023-05-04T01:35:40.151Z,0.72
2023-05-04T01:36:40.251Z,1.19
2023-05-04T01:37:40.315Z,0.86
2023-05-04T01:38:40.320Z,0.88
2023-05-04T01:39:40.380Z,0.95
2023-05-04T01:40:40.295Z,0.66
2023-05-04T01:41:40.301Z,0.85
2023-05-04T01:42:40.314Z,0.82
2023-05-04T01:43:40.352Z,0.85
2023-05-04T01:44:40.426Z,0.97
2023-05-04T01:45:40.523Z,0.67
2023-05-04T01:46:40.663Z,0.96
2023-05-04T01:47:40.702Z,0.94
2023-05-04T01:48:40.614Z,0.73
2023-05-04T01:49:40.615Z,0.81
2023-05-04T01:50:40.596Z,0.83
2023-05-04T01:51:40.654Z,1.10
2023-05-04T01:52:40.719Z,0.85
2023-05-04T01:53:40.861Z,1.08
2023-05-04T01:54:40.888Z,1.22
2023-05-04T01:55:40.942Z,0.60
2023-05-04T01:56:40.948Z,0.83
2023-05-04T01:57:40.881Z,0.93
2023-05-04T01:58:40.921Z,0.90
2023-05-04T01:59:40.929Z,0.80
2023-05-04T02:00:41.027Z,0.79
2023-05-04T02:01:41.107Z,0.98
2023-05-04T02:02:41.047Z,0.67
2023-05-04T02:03:41.131Z,0.83
2023-05-04T02:04:41.097Z,0.52
2023-05-04T02:05:41.115Z,1.09
2023-05-04T02:06:41.170Z,0.98
2023-05-04T02:07:41.147Z,0.85
2023-05-04T02:08:41.186Z,0.71
2023-05-04T02:09:41.136Z,0.87
2023-05-04T02:10:41.207Z,0.91
2023-05-04T02:11:41.163Z,0.90
2023-05-04T02:12:41.274Z,1.22
2023-05-04T02:13:41.294Z,0.95
2023-05-04T02:14:41.392Z,0.96
2023-05-04T02:15:41.567Z,1.01
2023-05-04T02:16:41.423Z,0.83
2023-05-04T02:17:41.438Z,0.97
2023-05-04T02:18:41.465Z,0.89
2023-05-04T02:19:41.621Z,0.86
2023-05-04T02:20:41.728Z,1.05
2023-05-04T02:21:41.625Z,0.73
2023-05-04T02:22:41.632Z,1.03
2023-05-04T02:23:41.642Z,0.88
2023-05-04T02:24:41.653Z,0.94
2023-05-04T02:25:41.608Z,1.01
2023-05-04T02:26:41.716Z,0.84
2023-05-04T02:27:41.812Z,0.85
2023-05-04T02:28:41.788Z,0.99
2023-05-04T02:29:41.776Z,0.70
2023-05-04T02:30:41.748Z,0.73
2023-05-04T02:31:41.811Z,1.12
2023-05-04T02:32:41.885Z,0.93
2023-05-04T02:33:41.907Z,0.88
2023-05-04T02:34:42.033Z,1.15
2023-05-04T02:35:42.032Z,0.81
2023-05-04T02:36:42.204Z,0.80
2023-05-04T02:37:42.005Z,0.60
2023-05-04T02:38:42.010Z,0.80
2023-05-04T02:39:42.064Z,0.69
2023-05-04T02:40:42.180Z,0.72
2023-05-04T02:41:42.281Z,0.91
2023-05-04T02:42:42.250Z,0.89
2023-05-04T02:43:42.248Z,0.95
2023-05-04T02:44:42.243Z,0.96
2023-05-04T02:45:42.290Z,0.87
2023-05-04T02:46:42.210Z,0.61
2023-05-04T02:47:42.379Z,0.87
2023-05-04T02:48:42.388Z,0.77
2023-05-04T02:49:42.338Z,1.27
2023-05-04T02:50:42.356Z,1.02
2023-05-04T02:51:42.343Z,0.74
2023-05-04T02:52:42.362Z,0.89
2023-05-04T02:53:42.373Z,0.83
2023-05-04T02:54:42.421Z,1.02
2023-05-04T02:55:42.436Z,0.78
2023-05-04T02:56:42.385Z,0.86
2023-05-04T02:57:42.404Z,0.93
2023-05-04T02:58:42.401Z,0.74
2023-05-04T02:59:42.405Z,0.90
2023-05-04T03:00:42.490Z,0.84
2023-05-04T03:01:42.662Z,1.13
2023-05-04T03:02:42.883Z,1.12
2023-05-04T03:03:42.689Z,0.90
2023-05-04T03:04:42.714Z,0.94
2023-05-04T03:05:42.701Z,0.71
2023-05-04T03:06:42.722Z,0.91
2023-05-04T03:07:42.730Z,0.75
2023-05-04T03:08:42.786Z,0.89
2023-05-04T03:09:43.805Z,0.79
2023-05-04T03:10:42.730Z,1.06
2023-05-04T03:11:42.745Z,1.02
2023-05-04T03:12:42.843Z,1.05
2023-05-04T03:13:42.758Z,1.07
2023-05-04T03:14:42.720Z,0.91
2023-05-04T03:15:42.842Z,0.60
2023-05-04T03:16:42.883Z,0.94
2023-05-04T03:17:42.849Z,0.89
2023-05-04T03:18:42.846Z,0.91
2023-05-04T03:19:42.857Z,0.76
2023-05-04T03:20:42.856Z,0.94
2023-05-04T03:21:42.938Z,0.79
2023-05-04T03:22:42.953Z,0.65
2023-05-04T03:23:42.958Z,0.75
2023-05-04T03:24:42.934Z,1.06
2023-05-04T03:25:42.946Z,0.49
2023-05-04T03:26:42.942Z,0.85
2023-05-04T03:27:43.069Z,1.07
2023-05-04T03:28:43.063Z,0.67
2023-05-04T03:29:43.039Z,0.92
2023-05-04T03:30:43.024Z,0.75
2023-05-04T03:31:43.060Z,1.01
2023-05-04T03:32:43.056Z,0.84
2023-05-04T03:33:43.046Z,0.86
2023-05-04T03:34:43.058Z,0.87
2023-05-04T03:35:43.134Z,0.85
2023-05-04T03:36:43.073Z,0.90
2023-05-04T03:37:43.082Z,0.75
2023-05-04T03:38:43.131Z,1.04
2023-05-04T03:39:43.248Z,0.74
2023-05-04T03:40:43.247Z,0.80
2023-05-04T03:41:43.253Z,0.66
2023-05-04T03:42:43.263Z,0.83
2023-05-04T03:43:43.280Z,0.75
2023-05-04T03:44:43.270Z,0.69
2023-05-04T03:45:43.357Z,0.61
2023-05-04T03:46:43.445Z,0.98
2023-05-04T03:47:43.571Z,0.58
2023-05-04T03:48:43.774Z,0.82
2023-05-04T03:49:43.885Z,0.84
2023-05-04T03:50:43.935Z,0.69
2023-05-04T03:51:44.097Z,0.71
2023-05-04T03:52:44.206Z,0.70
2023-05-04T03:53:44.909Z,0.82
2023-05-04T03:54:44.225Z,0.55
2023-05-04T03:55:44.176Z,0.86
2023-05-04T03:56:44.236Z,0.92
2023-05-04T03:57:44.234Z,0.71
2023-05-04T03:58:44.217Z,0.86
2023-05-04T03:59:44.267Z,0.77
2023-05-04T04:00:44.263Z,1.03
2023-05-04T04:01:44.290Z,0.89
2023-05-04T04:02:44.384Z,0.75
2023-05-04T04:03:44.346Z,0.93
2023-05-04T04:04:44.399Z,0.94
2023-05-04T04:05:44.369Z,0.85
2023-05-04T04:06:44.362Z,0.94
2023-05-04T04:07:44.361Z,0.80
2023-05-04T04:08:44.353Z,0.84
2023-05-04T04:09:44.379Z,0.82
2023-05-04T04:10:44.388Z,0.71
2023-05-04T04:11:44.454Z,0.84
2023-05-04T04:12:44.514Z,0.69
2023-05-04T04:13:44.519Z,0.89
2023-05-04T04:14:44.532Z,0.88
2023-05-04T04:15:44.547Z,0.92
2023-05-04T04:16:44.710Z,0.75
2023-05-04T04:17:44.667Z,0.98
2023-05-04T04:18:44.630Z,1.58
2023-05-04T04:19:44.636Z,0.83
2023-05-04T04:20:44.654Z,0.74
2023-05-04T04:21:44.648Z,0.74
2023-05-04T04:22:44.617Z,0.58
2023-05-04T04:23:44.757Z,0.86
2023-05-04T04:24:44.840Z,1.07
2023-05-04T04:25:44.847Z,0.84
2023-05-04T04:26:44.840Z,0.79
2023-05-04T04:27:44.880Z,0.96
2023-05-04T04:28:44.909Z,1.01
2023-05-04T04:29:44.975Z,0.99
2023-05-04T04:30:45.017Z,0.84
2023-05-04T04:31:45.055Z,0.93
2023-05-04T04:32:45.151Z,1.04
2023-05-04T04:33:45.102Z,0.79
2023-05-04T04:34:45.166Z,0.80
2023-05-04T04:35:45.242Z,0.90
2023-05-04T04:36:45.226Z,0.70
2023-05-04T04:37:45.289Z,0.94
2023-05-04T04:38:45.346Z,0.70
2023-05-04T04:39:45.401Z,0.84
2023-05-04T04:40:45.393Z,0.92
2023-05-04T04:41:45.401Z,0.86
2023-05-04T04:42:45.422Z,0.95
2023-05-04T04:43:45.415Z,0.67
2023-05-04T04:44:45.489Z,1.06
2023-05-04T04:45:45.483Z,1.23
2023-05-04T04:46:45.533Z,0.81
2023-05-04T04:47:45.663Z,0.88
2023-05-04T04:48:45.563Z,1.03
2023-05-04T04:49:45.569Z,0.81
2023-05-04T04:50:45.559Z,0.87
2023-05-04T04:51:45.678Z,0.91
2023-05-04T04:52:45.675Z,0.91
2023-05-04T04:53:45.770Z,1.03
2023-05-04T04:54:45.758Z,0.89
2023-05-04T04:55:45.807Z,0.61
2023-05-04T04:56:45.874Z,0.85
2023-05-04T04:57:45.832Z,0.73
2023-05-04T04:58:45.903Z,0.79
2023-05-04T04:59:45.891Z,0.78
2023-05-04T05:00:45.970Z,0.96
2023-05-04T05:01:46.006Z,0.90
2023-05-04T05:02:46.104Z,0.88
2023-05-04T05:03:46.134Z,1.06
2023-05-04T05:04:46.241Z,0.92
2023-05-04T05:05:46.180Z,0.83
2023-05-04T05:06:46.150Z,0.79
2023-05-04T05:07:46.144Z,0.81
2023-05-04T05:08:46.157Z,0.78
2023-05-04T05:09:46.202Z,0.84
2023-05-04T05:10:46.216Z,0.70
2023-05-04T05:11:46.192Z,0.85
2023-05-04T05:12:46.244Z,0.71
2023-05-04T05:13:46.194Z,0.86
2023-05-04T05:14:46.205Z,0.67
2023-05-04T05:15:46.249Z,0.79
2023-05-04T05:16:46.303Z,0.98
2023-05-04T05:17:46.393Z,0.80
2023-05-04T05:18:46.346Z,0.84
2023-05-04T05:19:46.377Z,0.89
2023-05-04T05:20:46.463Z,0.79
2023-05-04T05:21:46.507Z,0.72
2023-05-04T05:22:46.629Z,0.69
2023-05-04T05:23:46.589Z,0.68
2023-05-04T05:24:46.647Z,1.15
2023-05-04T05:25:46.703Z,1.06
2023-05-04T05:26:46.736Z,0.81
2023-05-04T05:27:46.824Z,0.98
2023-05-04T05:28:46.844Z,1.09
2023-05-04T05:29:46.918Z,0.72
2023-05-04T05:30:46.992Z,0.77
2023-05-04T05:31:47.023Z,0.60
2023-05-04T05:32:49.347Z,1.85
2023-05-04T05:33:47.193Z,1.64
2023-05-04T05:34:47.338Z,2.61
2023-05-04T05:35:47.285Z,2.63
2023-05-04T05:36:47.273Z,3.20
2023-05-04T05:37:47.341Z,3.19
2023-05-04T05:38:49.660Z,3.62
2023-05-04T05:39:47.325Z,3.06
2023-05-04T05:40:47.334Z,3.02
2023-05-04T05:41:47.311Z,3.35
2023-05-04T05:42:47.255Z,3.24
2023-05-04T05:43:47.296Z,3.31
2023-05-04T05:44:47.343Z,3.66
2023-05-04T05:45:47.293Z,3.62
2023-05-04T05:46:47.290Z,3.79
2023-05-04T05:47:47.304Z,3.47
2023-05-04T05:48:47.291Z,3.33
2023-05-04T05:49:47.327Z,3.39
2023-05-04T05:50:47.208Z,3.34
2023-05-04T05:51:47.205Z,3.86
2023-05-04T05:52:47.242Z,3.94
2023-05-04T05:53:47.238Z,3.53
2023-05-04T05:54:47.152Z,3.10
2023-05-04T05:55:47.183Z,3.57
2023-05-04T05:56:47.253Z,3.31
2023-05-04T05:57:47.230Z,3.93
2023-05-04T05:58:47.153Z,3.28
2023-05-04T05:59:47.229Z,3.65
2023-05-04T06:00:47.165Z,3.76
2023-05-04T06:01:47.183Z,3.49
2023-05-04T06:02:47.236Z,3.16
2023-05-04T06:03:47.454Z,3.37
2023-05-04T06:04:47.224Z,4.27
2023-05-04T06:05:47.092Z,3.20
2023-05-04T06:06:47.122Z,3.10
2023-05-04T06:07:47.320Z,3.22
2023-05-04T06:08:47.117Z,3.57
2023-05-04T06:09:47.143Z,3.19
2023-05-04T06:10:47.297Z,3.57
2023-05-04T06:11:47.351Z,2.87
2023-05-04T06:12:47.211Z,2.73
2023-05-04T06:13:47.063Z,3.53
2023-05-04T06:14:47.069Z,3.37
2023-05-04T06:15:47.082Z,4.61
2023-05-04T06:16:47.193Z,3.57
2023-05-04T06:17:47.401Z,3.45
2023-05-04T06:18:47.306Z,4.43
2023-05-04T06:19:49.522Z,3.45
2023-05-04T06:20:47.012Z,3.73
2023-05-04T06:21:46.999Z,4.30
2023-05-04T06:22:47.032Z,4.70
2023-05-04T06:23:47.078Z,4.44
2023-05-04T06:24:46.996Z,4.88
2023-05-04T06:25:47.024Z,5.52
2023-05-04T06:26:47.005Z,3.81
2023-05-04T06:27:47.831Z,3.30
2023-05-04T06:28:47.322Z,3.94
2023-05-04T06:29:46.985Z,4.10
2023-05-04T06:30:46.986Z,3.76
2023-05-04T06:31:48.416Z,4.24
2023-05-04T06:32:47.060Z,3.93
2023-05-04T06:33:47.317Z,5.27
2023-05-04T06:34:46.969Z,4.53
2023-05-04T06:35:47.013Z,3.87
2023-05-04T06:36:46.911Z,5.16
2023-05-04T06:37:46.956Z,4.85
2023-05-04T06:38:47.291Z,4.64
2023-05-04T06:39:47.337Z,5.51
2023-05-04T06:40:46.924Z,4.12
2023-05-04T06:41:46.864Z,4.01
2023-05-04T06:42:46.921Z,3.75
2023-05-04T06:43:46.867Z,5.09
2023-05-04T06:44:47.338Z,4.61
2023-05-04T06:45:46.948Z,4.59
2023-05-04T06:46:47.920Z,3.83
2023-05-04T06:47:46.893Z,3.78
2023-05-04T06:48:46.876Z,4.37
2023-05-04T06:49:47.822Z,3.60
2023-05-04T06:50:46.798Z,4.71
2023-05-04T06:51:46.830Z,4.29
2023-05-04T06:52:46.813Z,4.21
2023-05-04T06:53:46.876Z,4.58
2023-05-04T06:54:46.904Z,4.31
2023-05-04T06:55:46.828Z,3.53
2023-05-04T06:56:46.906Z,4.62
2023-05-04T06:57:46.796Z,3.93
2023-05-04T06:58:46.765Z,4.04
2023-05-04T06:59:46.772Z,3.52
2023-05-04T07:00:46.857Z,4.27
2023-05-04T07:01:46.861Z,4.30
2023-05-04T07:02:46.867Z,4.00
2023-05-04T07:03:46.877Z,4.35
2023-05-04T07:04:47.363Z,4.60
2023-05-04T07:05:46.911Z,4.47
2023-05-04T07:06:46.966Z,4.52
2023-05-04T07:07:47.019Z,4.80
2023-05-04T07:08:47.014Z,4.21
2023-05-04T07:09:47.089Z,4.32
2023-05-04T07:10:47.091Z,4.27
2023-05-04T07:11:47.106Z,4.96
2023-05-04T07:12:47.139Z,4.11
2023-05-04T07:13:47.224Z,4.14
2023-05-04T07:14:47.189Z,4.58
2023-05-04T07:15:47.257Z,4.15
2023-05-04T07:16:47.262Z,3.95
2023-05-04T07:17:47.409Z,3.86
2023-05-04T07:18:47.292Z,4.44
2023-05-04T07:19:47.325Z,4.59
2023-05-04T07:20:47.888Z,4.55
2023-05-04T07:21:47.436Z,4.38
2023-05-04T07:22:47.492Z,4.45
2023-05-04T07:23:47.427Z,5.36
2023-05-04T07:24:47.456Z,3.98
2023-05-04T07:25:47.546Z,4.70
2023-05-04T07:26:47.637Z,4.55
2023-05-04T07:27:47.553Z,4.62
2023-05-04T07:28:47.521Z,4.10
2023-05-04T07:29:48.327Z,4.25
2023-05-04T07:30:47.909Z,4.36
2023-05-04T07:31:47.635Z,4.55
2023-05-04T07:32:47.691Z,4.05
2023-05-04T07:33:47.767Z,4.26
2023-05-04T07:34:47.781Z,4.58
2023-05-04T07:35:47.819Z,4.73
2023-05-04T07:36:50.824Z,4.53
2023-05-04T07:37:47.838Z,4.45
2023-05-04T07:38:47.843Z,4.55
2023-05-04T07:39:47.848Z,4.51
2023-05-04T07:40:48.424Z,4.09
2023-05-04T07:41:49.640Z,4.25
2023-05-04T07:42:48.355Z,4.50
2023-05-04T07:43:47.829Z,4.06
2023-05-04T07:44:47.846Z,4.34
2023-05-04T07:45:48.052Z,4.84
2023-05-04T07:46:47.780Z,4.06
2023-05-04T07:47:47.937Z,3.74
2023-05-04T07:48:48.342Z,3.96
2023-05-04T07:49:49.155Z,4.03
2023-05-04T07:50:48.332Z,3.67
2023-05-04T07:51:47.971Z,3.58
2023-05-04T07:52:47.803Z,3.94
2023-05-04T07:53:47.756Z,3.64
2023-05-04T07:54:47.764Z,3.81
2023-05-04T07:55:47.880Z,4.09
2023-05-04T07:56:47.861Z,4.10
2023-05-04T07:57:47.853Z,3.42
2023-05-04T07:58:47.929Z,3.85
2023-05-04T07:59:47.873Z,3.32
2023-05-04T08:00:48.356Z,3.55
2023-05-04T08:01:48.421Z,3.52
2023-05-04T08:02:48.521Z,3.57
2023-05-04T08:03:48.103Z,3.92
2023-05-04T08:04:48.442Z,3.79
2023-05-04T08:05:48.186Z,4.13
2023-05-04T08:06:48.341Z,3.63
2023-05-04T08:07:48.238Z,3.77
2023-05-04T08:08:48.339Z,3.79
2023-05-04T08:09:48.469Z,3.79
2023-05-04T08:10:48.367Z,3.89
2023-05-04T08:11:48.887Z,3.29
2023-05-04T08:12:48.538Z,3.51
2023-05-04T08:13:48.504Z,4.78
2023-05-04T08:14:48.510Z,3.49
2023-05-04T08:15:48.620Z,3.24
2023-05-04T08:16:48.691Z,3.95
2023-05-04T08:17:48.597Z,3.66
2023-05-04T08:18:48.613Z,3.51
2023-05-04T08:19:48.638Z,3.34
2023-05-04T08:20:48.725Z,3.28
2023-05-04T08:21:48.910Z,3.01
2023-05-04T08:22:48.721Z,3.30
2023-05-04T08:23:48.851Z,3.39
2023-05-04T08:24:48.749Z,3.57
2023-05-04T08:25:48.807Z,3.72
2023-05-04T08:26:59.803Z,3.26
2023-05-04T08:27:49.867Z,3.27
2023-05-04T08:28:48.862Z,3.91
2023-05-04T08:29:48.809Z,3.67
2023-05-04T08:30:48.836Z,3.87
2023-05-04T08:31:48.835Z,3.58
2023-05-04T08:32:48.889Z,3.85
2023-05-04T08:33:48.832Z,3.75
2023-05-04T08:34:48.791Z,3.72
2023-05-04T08:35:48.760Z,4.56
2023-05-04T08:36:48.744Z,4.32
2023-05-04T08:37:48.760Z,4.07
2023-05-04T08:38:48.848Z,3.72
2023-05-04T08:39:48.945Z,4.05
2023-05-04T08:40:50.564Z,3.56
2023-05-04T08:41:48.870Z,3.32
2023-05-04T08:42:48.902Z,4.16
2023-05-04T08:43:49.380Z,3.60
2023-05-04T08:44:48.916Z,3.70
2023-05-04T08:45:48.933Z,3.48
2023-05-04T08:46:49.048Z,3.33
2023-05-04T08:47:48.955Z,3.34
2023-05-04T08:48:48.928Z,3.45
2023-05-04T08:49:48.938Z,3.66
2023-05-04T08:50:49.359Z,4.01
2023-05-04T08:51:49.042Z,3.40
2023-05-04T08:52:49.259Z,4.05
2023-05-04T08:53:49.242Z,3.49
2023-05-04T08:54:49.237Z,3.87
2023-05-04T08:55:49.294Z,3.24
2023-05-04T08:56:49.364Z,3.10
2023-05-04T08:57:51.208Z,3.24
2023-05-04T08:58:49.493Z,3.22
2023-05-04T08:59:49.526Z,3.28
2023-05-04T09:00:49.679Z,3.53
2023-05-04T09:01:49.800Z,3.93
2023-05-04T09:02:49.735Z,3.69
2023-05-04T09:03:49.921Z,3.38
2023-05-04T09:04:49.762Z,3.19
2023-05-04T09:05:49.825Z,3.12
2023-05-04T09:06:49.841Z,3.46
2023-05-04T09:07:49.896Z,3.32
2023-05-04T09:08:49.888Z,4.05
2023-05-04T09:09:50.014Z,3.42
2023-05-04T09:10:50.102Z,3.11
2023-05-04T09:11:50.003Z,3.38
2023-05-04T09:12:50.053Z,3.67
2023-05-04T09:13:50.538Z,3.53
2023-05-04T09:14:50.144Z,3.79
2023-05-04T09:15:50.151Z,3.03
2023-05-04T09:16:50.206Z,3.85
2023-05-04T09:17:57.671Z,4.46
2023-05-04T09:18:51.189Z,3.48
2023-05-04T09:19:50.191Z,3.71
2023-05-04T09:20:50.291Z,3.69
2023-05-04T09:21:50.182Z,3.63
2023-05-04T09:22:50.152Z,3.65
2023-05-04T09:23:50.963Z,3.87
2023-05-04T09:24:50.192Z,3.88
2023-05-04T09:25:50.425Z,3.39
2023-05-04T09:26:50.125Z,3.70
2023-05-04T09:27:50.246Z,3.75
2023-05-04T09:28:50.327Z,3.97
2023-05-04T09:29:50.247Z,3.58
2023-05-04T09:30:50.335Z,4.17
2023-05-04T09:31:50.422Z,3.64
2023-05-04T09:32:50.422Z,4.30
2023-05-04T09:33:52.767Z,3.54
2023-05-04T09:34:51.004Z,4.04
2023-05-04T09:35:50.395Z,3.95
2023-05-04T09:36:50.343Z,3.24
2023-05-04T09:37:50.362Z,3.23
2023-05-04T09:38:50.409Z,3.69
2023-05-04T09:39:50.331Z,3.23
2023-05-04T09:40:50.298Z,3.11
2023-05-04T09:41:50.392Z,3.15
2023-05-04T09:42:50.401Z,3.03
2023-05-04T09:43:50.291Z,3.23
2023-05-04T09:44:50.300Z,3.02
2023-05-04T09:45:50.358Z,2.91
2023-05-04T09:46:50.376Z,3.38
2023-05-04T09:47:50.425Z,2.78
2023-05-04T09:48:50.284Z,2.76
2023-05-04T09:49:50.461Z,2.90
2023-05-04T09:50:50.297Z,2.45
2023-05-04T09:51:50.296Z,2.82
2023-05-04T09:52:50.345Z,2.72
2023-05-04T09:53:50.311Z,3.46
2023-05-04T09:54:50.271Z,3.46
2023-05-04T09:55:50.212Z,3.66
2023-05-04T09:56:50.283Z,2.93
2023-05-04T09:57:50.386Z,3.28
2023-05-04T09:58:50.338Z,2.81
2023-05-04T09:59:50.186Z,3.00
2023-05-04T10:00:50.235Z,3.01
2023-05-04T10:01:51.009Z,3.07
2023-05-04T10:02:50.443Z,2.87
2023-05-04T10:03:50.166Z,3.27
2023-05-04T10:04:50.907Z,3.00
2023-05-04T10:05:50.247Z,2.89
2023-05-04T10:06:50.139Z,2.15
2023-05-04T10:07:50.316Z,3.03
2023-05-04T10:08:50.398Z,2.89
2023-05-04T10:09:50.185Z,2.88
2023-05-04T10:10:50.185Z,2.72
2023-05-04T10:11:50.212Z,2.91
2023-05-04T10:12:50.156Z,3.15
2023-05-04T10:13:50.133Z,3.51
2023-05-04T10:14:50.103Z,3.22
2023-05-04T10:15:50.190Z,3.49
2023-05-04T10:16:50.109Z,3.06
2023-05-04T10:17:50.228Z,2.55
2023-05-04T10:18:50.181Z,3.36
2023-05-04T10:19:50.879Z,3.27
2023-05-04T10:20:50.258Z,3.34
2023-05-04T10:21:50.291Z,3.16
2023-05-04T10:22:50.300Z,3.11
2023-05-04T10:23:50.385Z,3.26
2023-05-04T10:24:50.322Z,3.18
2023-05-04T10:25:50.509Z,3.24
2023-05-04T10:26:50.429Z,3.40
2023-05-04T10:27:50.969Z,3.30
2023-05-04T10:28:50.499Z,2.94
2023-05-04T10:29:50.577Z,3.84
2023-05-04T10:30:50.548Z,3.29
2023-05-04T10:31:50.630Z,3.47
2023-05-04T10:32:50.689Z,3.05
2023-05-04T10:33:50.672Z,3.52
2023-05-04T10:34:50.744Z,2.99
2023-05-04T10:35:50.680Z,2.85
2023-05-04T10:36:50.752Z,3.31
2023-05-04T10:37:50.756Z,3.02
2023-05-04T10:38:50.805Z,2.96
2023-05-04T10:39:50.787Z,3.13
2023-05-04T10:40:50.829Z,3.55
2023-05-04T10:41:50.842Z,3.13
2023-05-04T10:42:50.845Z,2.93
2023-05-04T10:43:51.028Z,3.65
2023-05-04T10:44:50.848Z,2.83
2023-05-04T10:45:50.901Z,3.60
2023-05-04T10:46:50.885Z,3.00
2023-05-04T10:47:50.901Z,3.32
2023-05-04T10:48:50.895Z,2.96
2023-05-04T10:49:50.900Z,3.24
2023-05-04T10:50:50.903Z,3.14
2023-05-04T10:51:50.897Z,2.79
2023-05-04T10:52:50.931Z,2.96
2023-05-04T10:53:50.913Z,3.70
2023-05-04T10:54:50.930Z,2.92
2023-05-04T10:55:50.891Z,3.15
2023-05-04T10:56:50.912Z,4.28
2023-05-04T10:57:50.892Z,3.24
2023-05-04T10:58:50.935Z,2.63
2023-05-04T10:59:50.947Z,2.31
2023-05-04T11:00:50.928Z,3.08
2023-05-04T11:01:50.942Z,3.46
2023-05-04T11:02:51.013Z,3.20
2023-05-04T11:03:51.019Z,2.55
2023-05-04T11:04:51.051Z,3.19
2023-05-04T11:05:51.118Z,2.70
2023-05-04T11:06:51.127Z,3.28
2023-05-04T11:07:51.129Z,2.61
2023-05-04T11:08:51.468Z,3.28
2023-05-04T11:09:51.193Z,3.19
2023-05-04T11:10:51.257Z,3.55
2023-05-04T11:11:51.308Z,2.99
2023-05-04T11:12:51.417Z,3.13
2023-05-04T11:13:51.423Z,3.19
2023-05-04T11:14:51.454Z,2.72
2023-05-04T11:15:51.585Z,2.81
2023-05-04T11:16:51.587Z,3.00
2023-05-04T11:17:51.613Z,3.47
2023-05-04T11:18:51.694Z,2.78
2023-05-04T11:19:51.750Z,3.38
2023-05-04T11:20:51.935Z,3.50
2023-05-04T11:21:51.832Z,2.39
2023-05-04T11:22:51.895Z,2.60
2023-05-04T11:23:51.865Z,2.41
2023-05-04T11:24:52.421Z,2.09
2023-05-04T11:25:51.805Z,2.52
2023-05-04T11:26:51.862Z,2.49
2023-05-04T11:27:51.863Z,2.99
2023-05-04T11:28:51.851Z,2.41
2023-05-04T11:29:51.872Z,2.20
2023-05-04T11:30:52.877Z,2.54
2023-05-04T11:31:51.946Z,2.52
2023-05-04T11:32:51.992Z,2.60
2023-05-04T11:33:51.967Z,2.07
2023-05-04T11:34:51.976Z,2.37
2023-05-04T11:35:52.084Z,2.26
2023-05-04T11:36:52.016Z,2.20
2023-05-04T11:37:52.052Z,2.34
2023-05-04T11:38:52.104Z,2.33
2023-05-04T11:39:52.066Z,2.01
2023-05-04T11:40:52.073Z,1.74
2023-05-04T11:41:52.150Z,2.22
2023-05-04T11:42:52.896Z,2.06
2023-05-04T11:43:52.192Z,2.30
2023-05-04T11:44:52.198Z,1.96
2023-05-04T11:45:52.234Z,1.78
2023-05-04T11:46:52.314Z,2.06
2023-05-04T11:47:52.373Z,1.68
2023-05-04T11:48:52.407Z,1.66
2023-05-04T11:49:52.359Z,1.54
2023-05-04T11:50:52.385Z,2.23
2023-05-04T11:51:52.482Z,1.85
2023-05-04T11:52:52.445Z,1.68
2023-05-04T11:53:52.536Z,1.64
2023-05-04T11:54:54.107Z,2.18
2023-05-04T11:55:52.510Z,2.10
2023-05-04T11:56:52.540Z,1.90
2023-05-04T11:57:52.569Z,1.51
2023-05-04T11:58:52.507Z,1.80
2023-05-04T11:59:52.573Z,1.84
2023-05-04T12:00:53.743Z,1.78
2023-05-04T12:01:52.477Z,1.84
2023-05-04T12:02:52.494Z,1.65
2023-05-04T12:03:54.252Z,1.69
2023-05-04T12:04:52.442Z,1.89
2023-05-04T12:05:52.590Z,1.66
2023-05-04T12:06:52.444Z,1.66
2023-05-04T12:07:52.978Z,1.58
2023-05-04T12:08:52.426Z,1.74
2023-05-04T12:09:52.413Z,1.77
2023-05-04T12:10:52.399Z,1.52
2023-05-04T12:11:52.436Z,1.68
2023-05-04T12:12:52.433Z,1.55
2023-05-04T12:13:52.390Z,1.55
2023-05-04T12:14:52.414Z,1.81
2023-05-04T12:15:52.468Z,1.62
2023-05-04T12:16:52.430Z,1.40
2023-05-04T12:17:52.549Z,1.45
2023-05-04T12:18:52.514Z,1.56
2023-05-04T12:19:52.554Z,1.33
2023-05-04T12:20:52.537Z,1.57
2023-05-04T12:21:52.663Z,1.86
2023-05-04T12:22:52.665Z,1.37
2023-05-04T12:23:52.679Z,1.49
2023-05-04T12:24:52.754Z,1.23
2023-05-04T12:25:58.161Z,1.44
2023-05-04T12:26:53.752Z,1.72
2023-05-04T12:27:52.799Z,1.98
2023-05-04T12:28:52.706Z,1.22
2023-05-04T12:29:52.706Z,1.31
2023-05-04T12:30:52.692Z,1.81
2023-05-04T12:31:52.792Z,1.34
2023-05-04T12:32:52.709Z,1.24
2023-05-04T12:33:52.761Z,1.12
2023-05-04T12:34:52.681Z,1.21
2023-05-04T12:35:52.730Z,1.55
2023-05-04T12:36:52.658Z,1.06
2023-05-04T12:37:52.720Z,1.47
2023-05-04T12:38:52.676Z,1.53
2023-05-04T12:39:52.685Z,1.39
2023-05-04T12:40:52.657Z,1.94
2023-05-04T12:41:52.656Z,1.63
2023-05-04T12:42:52.585Z,1.37
2023-05-04T12:43:52.701Z,1.31
2023-05-04T12:44:52.676Z,1.18
2023-05-04T12:45:52.781Z,1.34
2023-05-04T12:46:52.713Z,1.33
2023-05-04T12:47:52.780Z,1.28
2023-05-04T12:48:52.804Z,1.38
2023-05-04T12:49:52.809Z,1.30
2023-05-04T12:50:52.796Z,1.43
2023-05-04T12:51:52.822Z,2.42
2023-05-04T12:52:52.865Z,1.14
2023-05-04T12:53:52.885Z,1.10
2023-05-04T12:54:52.885Z,1.45
2023-05-04T12:55:52.954Z,1.71
2023-05-04T12:56:52.950Z,1.49
2023-05-04T12:57:52.971Z,1.54
2023-05-04T12:58:52.948Z,1.42
2023-05-04T12:59:53.030Z,1.42
2023-05-04T13:00:52.985Z,1.56
2023-05-04T13:01:53.070Z,1.27
2023-05-04T13:02:53.103Z,1.57
2023-05-04T13:03:53.163Z,1.31
2023-05-04T13:04:53.054Z,1.49
2023-05-04T13:05:53.098Z,1.48
2023-05-04T13:06:53.103Z,1.30
2023-05-04T13:07:53.063Z,1.31
2023-05-04T13:08:53.103Z,1.33
2023-05-04T13:09:53.136Z,1.69
2023-05-04T13:10:53.084Z,1.78
2023-05-04T13:11:53.155Z,1.49
2023-05-04T13:12:53.175Z,1.76
2023-05-04T13:13:53.114Z,1.36
2023-05-04T13:14:53.136Z,1.24
2023-05-04T13:15:53.125Z,1.42
2023-05-04T13:16:53.139Z,1.66
2023-05-04T13:17:53.170Z,1.45
2023-05-04T13:18:53.158Z,1.39